<?xml version="1.0" encoding="UTF-8" standalone="no" ?>
<gpx xmlns="http://www.topografix.com/GPX/1/1" xmlns:xsi="http://www.w3.org/2001/XMLSchema-instance" xsi:schemaLocation="http://www.topografix.com/GPX/1/1 http://www.topografix.com/GPX/1/1/gpx.xsd" version="1.1" creator="VisuGPX - https://www.visugpx.com">
  <metadata>
    <name>83 - V - Draguignan </name>
    <desc><![CDATA[83 - V - Draguignan : Rabiéga  - rando crêpes 
2020-03-06
]]></desc>
  </metadata>
  <trk>
    <name><![CDATA[Rabiéga rando crêpes 2020-03-06-01]]></name>
    <extensions>
      <line xmlns="http://www.topografix.com/GPX/gpx_style/0/2">
        <width>4</width>
      </line>
    </extensions>
    <trkseg>
      <trkpt lat="43.52193" lon="6.42489">
        <ele>238.6</ele>
        <time>2020-03-06T12:49:25.000Z</time>
      </trkpt>
      <trkpt lat="43.52193" lon="6.42489">
        <ele>238.6</ele>
        <time>2020-03-06T12:49:26.000Z</time>
      </trkpt>
      <trkpt lat="43.52186" lon="6.42498">
        <ele>238.3</ele>
        <time>2020-03-06T12:51:47.000Z</time>
      </trkpt>
      <trkpt lat="43.52179" lon="6.42506">
        <ele>238.4</ele>
        <time>2020-03-06T12:52:12.000Z</time>
      </trkpt>
      <trkpt lat="43.5217" lon="6.42503">
        <ele>238.2</ele>
        <time>2020-03-06T12:53:55.000Z</time>
      </trkpt>
      <trkpt lat="43.52164" lon="6.42492">
        <ele>238.3</ele>
        <time>2020-03-06T12:55:28.000Z</time>
      </trkpt>
      <trkpt lat="43.52157" lon="6.42483">
        <ele>238.5</ele>
        <time>2020-03-06T12:55:39.000Z</time>
      </trkpt>
      <trkpt lat="43.5215" lon="6.42474">
        <ele>240.5</ele>
        <time>2020-03-06T12:55:49.000Z</time>
      </trkpt>
      <trkpt lat="43.52142" lon="6.42468">
        <ele>241.4</ele>
        <time>2020-03-06T12:55:57.000Z</time>
      </trkpt>
      <trkpt lat="43.52133" lon="6.42466">
        <ele>241.3</ele>
        <time>2020-03-06T12:56:06.000Z</time>
      </trkpt>
      <trkpt lat="43.52123" lon="6.42464">
        <ele>242</ele>
        <time>2020-03-06T12:56:17.000Z</time>
      </trkpt>
      <trkpt lat="43.52113" lon="6.42462">
        <ele>243</ele>
        <time>2020-03-06T12:56:25.000Z</time>
      </trkpt>
      <trkpt lat="43.52103" lon="6.4246">
        <ele>243.4</ele>
        <time>2020-03-06T12:56:33.000Z</time>
      </trkpt>
      <trkpt lat="43.52094" lon="6.4246">
        <ele>244.2</ele>
        <time>2020-03-06T12:56:41.000Z</time>
      </trkpt>
      <trkpt lat="43.52085" lon="6.42462">
        <ele>244.9</ele>
        <time>2020-03-06T12:56:49.000Z</time>
      </trkpt>
      <trkpt lat="43.52081" lon="6.42451">
        <ele>245.8</ele>
        <time>2020-03-06T12:57:03.000Z</time>
      </trkpt>
      <trkpt lat="43.52084" lon="6.42439">
        <ele>247.1</ele>
        <time>2020-03-06T12:57:13.000Z</time>
      </trkpt>
      <trkpt lat="43.52085" lon="6.42426">
        <ele>248.5</ele>
        <time>2020-03-06T12:57:24.000Z</time>
      </trkpt>
      <trkpt lat="43.5209" lon="6.42415">
        <ele>249.7</ele>
        <time>2020-03-06T12:57:48.000Z</time>
      </trkpt>
      <trkpt lat="43.52096" lon="6.42406">
        <ele>250.7</ele>
        <time>2020-03-06T12:57:59.000Z</time>
      </trkpt>
      <trkpt lat="43.52104" lon="6.42398">
        <ele>252.7</ele>
        <time>2020-03-06T12:58:10.000Z</time>
      </trkpt>
      <trkpt lat="43.52113" lon="6.42395">
        <ele>253.4</ele>
        <time>2020-03-06T12:58:21.000Z</time>
      </trkpt>
      <trkpt lat="43.52123" lon="6.4239">
        <ele>254.7</ele>
        <time>2020-03-06T12:58:32.000Z</time>
      </trkpt>
      <trkpt lat="43.5213" lon="6.42383">
        <ele>255.4</ele>
        <time>2020-03-06T12:59:10.000Z</time>
      </trkpt>
      <trkpt lat="43.52121" lon="6.42384">
        <ele>255.5</ele>
        <time>2020-03-06T13:02:07.000Z</time>
      </trkpt>
      <trkpt lat="43.52113" lon="6.42389">
        <ele>254.3</ele>
        <time>2020-03-06T13:02:16.000Z</time>
      </trkpt>
      <trkpt lat="43.52104" lon="6.42394">
        <ele>252.5</ele>
        <time>2020-03-06T13:02:26.000Z</time>
      </trkpt>
      <trkpt lat="43.52096" lon="6.42401">
        <ele>252.7</ele>
        <time>2020-03-06T13:02:38.000Z</time>
      </trkpt>
      <trkpt lat="43.5209" lon="6.42411">
        <ele>251.8</ele>
        <time>2020-03-06T13:02:49.000Z</time>
      </trkpt>
      <trkpt lat="43.52086" lon="6.42423">
        <ele>250.4</ele>
        <time>2020-03-06T13:02:59.000Z</time>
      </trkpt>
      <trkpt lat="43.52082" lon="6.42434">
        <ele>248.8</ele>
        <time>2020-03-06T13:03:09.000Z</time>
      </trkpt>
      <trkpt lat="43.52078" lon="6.42446">
        <ele>246.7</ele>
        <time>2020-03-06T13:03:19.000Z</time>
      </trkpt>
      <trkpt lat="43.52074" lon="6.42458">
        <ele>244.5</ele>
        <time>2020-03-06T13:03:28.000Z</time>
      </trkpt>
      <trkpt lat="43.52067" lon="6.42467">
        <ele>245.2</ele>
        <time>2020-03-06T13:03:38.000Z</time>
      </trkpt>
      <trkpt lat="43.52057" lon="6.42469">
        <ele>247.1</ele>
        <time>2020-03-06T13:03:47.000Z</time>
      </trkpt>
      <trkpt lat="43.52047" lon="6.42466">
        <ele>245.6</ele>
        <time>2020-03-06T13:03:56.000Z</time>
      </trkpt>
      <trkpt lat="43.52038" lon="6.42464">
        <ele>244.2</ele>
        <time>2020-03-06T13:04:05.000Z</time>
      </trkpt>
      <trkpt lat="43.52029" lon="6.42462">
        <ele>244</ele>
        <time>2020-03-06T13:04:14.000Z</time>
      </trkpt>
      <trkpt lat="43.52019" lon="6.42461">
        <ele>242.9</ele>
        <time>2020-03-06T13:04:23.000Z</time>
      </trkpt>
      <trkpt lat="43.5201" lon="6.42463">
        <ele>243.6</ele>
        <time>2020-03-06T13:04:32.000Z</time>
      </trkpt>
      <trkpt lat="43.52" lon="6.42461">
        <ele>243.2</ele>
        <time>2020-03-06T13:04:41.000Z</time>
      </trkpt>
      <trkpt lat="43.51991" lon="6.42456">
        <ele>242.9</ele>
        <time>2020-03-06T13:04:49.000Z</time>
      </trkpt>
      <trkpt lat="43.51982" lon="6.42454">
        <ele>242.4</ele>
        <time>2020-03-06T13:04:57.000Z</time>
      </trkpt>
      <trkpt lat="43.51973" lon="6.4245">
        <ele>242.7</ele>
        <time>2020-03-06T13:05:05.000Z</time>
      </trkpt>
      <trkpt lat="43.51964" lon="6.42447">
        <ele>242.8</ele>
        <time>2020-03-06T13:05:13.000Z</time>
      </trkpt>
      <trkpt lat="43.51955" lon="6.42441">
        <ele>243.4</ele>
        <time>2020-03-06T13:05:21.000Z</time>
      </trkpt>
      <trkpt lat="43.51947" lon="6.42433">
        <ele>244.4</ele>
        <time>2020-03-06T13:05:30.000Z</time>
      </trkpt>
      <trkpt lat="43.51948" lon="6.4242">
        <ele>245.3</ele>
        <time>2020-03-06T13:05:39.000Z</time>
      </trkpt>
      <trkpt lat="43.51949" lon="6.42408">
        <ele>246.7</ele>
        <time>2020-03-06T13:05:47.000Z</time>
      </trkpt>
      <trkpt lat="43.51952" lon="6.42395">
        <ele>247</ele>
        <time>2020-03-06T13:05:56.000Z</time>
      </trkpt>
      <trkpt lat="43.5195" lon="6.42382">
        <ele>247.2</ele>
        <time>2020-03-06T13:06:04.000Z</time>
      </trkpt>
      <trkpt lat="43.51942" lon="6.42374">
        <ele>247.1</ele>
        <time>2020-03-06T13:06:13.000Z</time>
      </trkpt>
      <trkpt lat="43.51933" lon="6.42369">
        <ele>247.6</ele>
        <time>2020-03-06T13:06:21.000Z</time>
      </trkpt>
      <trkpt lat="43.51924" lon="6.42363">
        <ele>247.5</ele>
        <time>2020-03-06T13:06:29.000Z</time>
      </trkpt>
      <trkpt lat="43.51915" lon="6.42359">
        <ele>247.2</ele>
        <time>2020-03-06T13:06:37.000Z</time>
      </trkpt>
      <trkpt lat="43.51905" lon="6.42355">
        <ele>247</ele>
        <time>2020-03-06T13:06:45.000Z</time>
      </trkpt>
      <trkpt lat="43.51896" lon="6.42358">
        <ele>246.7</ele>
        <time>2020-03-06T13:06:53.000Z</time>
      </trkpt>
      <trkpt lat="43.51887" lon="6.42361">
        <ele>246.6</ele>
        <time>2020-03-06T13:07:00.000Z</time>
      </trkpt>
      <trkpt lat="43.51878" lon="6.42364">
        <ele>246.5</ele>
        <time>2020-03-06T13:07:08.000Z</time>
      </trkpt>
      <trkpt lat="43.51869" lon="6.42368">
        <ele>247</ele>
        <time>2020-03-06T13:07:16.000Z</time>
      </trkpt>
      <trkpt lat="43.5186" lon="6.42369">
        <ele>246.8</ele>
        <time>2020-03-06T13:07:23.000Z</time>
      </trkpt>
      <trkpt lat="43.51851" lon="6.42365">
        <ele>247</ele>
        <time>2020-03-06T13:07:32.000Z</time>
      </trkpt>
      <trkpt lat="43.51849" lon="6.42352">
        <ele>247.6</ele>
        <time>2020-03-06T13:07:42.000Z</time>
      </trkpt>
      <trkpt lat="43.51849" lon="6.42339">
        <ele>249.1</ele>
        <time>2020-03-06T13:07:54.000Z</time>
      </trkpt>
      <trkpt lat="43.51853" lon="6.42327">
        <ele>250.1</ele>
        <time>2020-03-06T13:08:04.000Z</time>
      </trkpt>
      <trkpt lat="43.51855" lon="6.42315">
        <ele>251.4</ele>
        <time>2020-03-06T13:08:13.000Z</time>
      </trkpt>
      <trkpt lat="43.51858" lon="6.42302">
        <ele>252.6</ele>
        <time>2020-03-06T13:08:21.000Z</time>
      </trkpt>
      <trkpt lat="43.51863" lon="6.42291">
        <ele>253.7</ele>
        <time>2020-03-06T13:08:30.000Z</time>
      </trkpt>
      <trkpt lat="43.51869" lon="6.4228">
        <ele>253.6</ele>
        <time>2020-03-06T13:08:39.000Z</time>
      </trkpt>
      <trkpt lat="43.51874" lon="6.42271">
        <ele>254.4</ele>
        <time>2020-03-06T13:08:49.000Z</time>
      </trkpt>
      <trkpt lat="43.51881" lon="6.4226">
        <ele>255</ele>
        <time>2020-03-06T13:08:58.000Z</time>
      </trkpt>
      <trkpt lat="43.51886" lon="6.42249">
        <ele>255.4</ele>
        <time>2020-03-06T13:09:07.000Z</time>
      </trkpt>
      <trkpt lat="43.51891" lon="6.42237">
        <ele>256.7</ele>
        <time>2020-03-06T13:09:16.000Z</time>
      </trkpt>
      <trkpt lat="43.51896" lon="6.42225">
        <ele>258.4</ele>
        <time>2020-03-06T13:09:25.000Z</time>
      </trkpt>
      <trkpt lat="43.519" lon="6.42214">
        <ele>259</ele>
        <time>2020-03-06T13:09:33.000Z</time>
      </trkpt>
      <trkpt lat="43.51904" lon="6.42203">
        <ele>260.4</ele>
        <time>2020-03-06T13:09:41.000Z</time>
      </trkpt>
      <trkpt lat="43.5191" lon="6.42192">
        <ele>261.6</ele>
        <time>2020-03-06T13:09:51.000Z</time>
      </trkpt>
      <trkpt lat="43.51918" lon="6.42183">
        <ele>262.3</ele>
        <time>2020-03-06T13:10:01.000Z</time>
      </trkpt>
      <trkpt lat="43.51924" lon="6.42174">
        <ele>263.3</ele>
        <time>2020-03-06T13:10:12.000Z</time>
      </trkpt>
      <trkpt lat="43.51925" lon="6.42161">
        <ele>263.3</ele>
        <time>2020-03-06T13:10:23.000Z</time>
      </trkpt>
      <trkpt lat="43.51929" lon="6.4215">
        <ele>262</ele>
        <time>2020-03-06T13:10:32.000Z</time>
      </trkpt>
      <trkpt lat="43.51932" lon="6.42138">
        <ele>261</ele>
        <time>2020-03-06T13:10:40.000Z</time>
      </trkpt>
      <trkpt lat="43.51936" lon="6.42126">
        <ele>259.7</ele>
        <time>2020-03-06T13:10:49.000Z</time>
      </trkpt>
      <trkpt lat="43.5194" lon="6.42113">
        <ele>258.4</ele>
        <time>2020-03-06T13:10:58.000Z</time>
      </trkpt>
      <trkpt lat="43.51944" lon="6.42102">
        <ele>257</ele>
        <time>2020-03-06T13:11:07.000Z</time>
      </trkpt>
      <trkpt lat="43.51939" lon="6.42091">
        <ele>255.6</ele>
        <time>2020-03-06T13:11:17.000Z</time>
      </trkpt>
      <trkpt lat="43.51932" lon="6.42082">
        <ele>254</ele>
        <time>2020-03-06T13:11:25.000Z</time>
      </trkpt>
      <trkpt lat="43.51924" lon="6.42075">
        <ele>253.6</ele>
        <time>2020-03-06T13:11:33.000Z</time>
      </trkpt>
      <trkpt lat="43.51916" lon="6.42069">
        <ele>254</ele>
        <time>2020-03-06T13:11:41.000Z</time>
      </trkpt>
      <trkpt lat="43.51907" lon="6.42063">
        <ele>253.7</ele>
        <time>2020-03-06T13:11:50.000Z</time>
      </trkpt>
      <trkpt lat="43.51902" lon="6.42051">
        <ele>254.2</ele>
        <time>2020-03-06T13:11:59.000Z</time>
      </trkpt>
      <trkpt lat="43.51906" lon="6.42039">
        <ele>254.7</ele>
        <time>2020-03-06T13:12:08.000Z</time>
      </trkpt>
      <trkpt lat="43.51909" lon="6.42026">
        <ele>254.5</ele>
        <time>2020-03-06T13:12:17.000Z</time>
      </trkpt>
      <trkpt lat="43.51912" lon="6.42014">
        <ele>254.6</ele>
        <time>2020-03-06T13:12:29.000Z</time>
      </trkpt>
      <trkpt lat="43.51916" lon="6.42002">
        <ele>254.5</ele>
        <time>2020-03-06T13:12:37.000Z</time>
      </trkpt>
      <trkpt lat="43.51919" lon="6.4199">
        <ele>254.7</ele>
        <time>2020-03-06T13:12:45.000Z</time>
      </trkpt>
      <trkpt lat="43.51923" lon="6.41977">
        <ele>254.2</ele>
        <time>2020-03-06T13:12:54.000Z</time>
      </trkpt>
      <trkpt lat="43.51926" lon="6.41966">
        <ele>255.2</ele>
        <time>2020-03-06T13:13:02.000Z</time>
      </trkpt>
      <trkpt lat="43.5193" lon="6.41954">
        <ele>255.4</ele>
        <time>2020-03-06T13:13:10.000Z</time>
      </trkpt>
      <trkpt lat="43.51935" lon="6.41943">
        <ele>256.2</ele>
        <time>2020-03-06T13:13:20.000Z</time>
      </trkpt>
      <trkpt lat="43.51939" lon="6.41931">
        <ele>256.3</ele>
        <time>2020-03-06T13:13:33.000Z</time>
      </trkpt>
      <trkpt lat="43.51942" lon="6.41919">
        <ele>256.7</ele>
        <time>2020-03-06T13:14:10.000Z</time>
      </trkpt>
      <trkpt lat="43.51945" lon="6.41907">
        <ele>256.6</ele>
        <time>2020-03-06T13:14:18.000Z</time>
      </trkpt>
      <trkpt lat="43.51947" lon="6.41895">
        <ele>256.5</ele>
        <time>2020-03-06T13:14:26.000Z</time>
      </trkpt>
      <trkpt lat="43.51947" lon="6.41881">
        <ele>256.7</ele>
        <time>2020-03-06T13:14:35.000Z</time>
      </trkpt>
      <trkpt lat="43.51951" lon="6.4187">
        <ele>256.6</ele>
        <time>2020-03-06T13:14:43.000Z</time>
      </trkpt>
      <trkpt lat="43.51953" lon="6.41857">
        <ele>256.3</ele>
        <time>2020-03-06T13:14:51.000Z</time>
      </trkpt>
      <trkpt lat="43.51958" lon="6.41844">
        <ele>255.8</ele>
        <time>2020-03-06T13:15:00.000Z</time>
      </trkpt>
      <trkpt lat="43.51963" lon="6.41834">
        <ele>256</ele>
        <time>2020-03-06T13:15:08.000Z</time>
      </trkpt>
      <trkpt lat="43.51961" lon="6.41821">
        <ele>256.7</ele>
        <time>2020-03-06T13:15:17.000Z</time>
      </trkpt>
      <trkpt lat="43.51957" lon="6.41808">
        <ele>256.9</ele>
        <time>2020-03-06T13:15:25.000Z</time>
      </trkpt>
      <trkpt lat="43.51953" lon="6.41795">
        <ele>257.7</ele>
        <time>2020-03-06T13:15:34.000Z</time>
      </trkpt>
      <trkpt lat="43.51949" lon="6.41783">
        <ele>258.2</ele>
        <time>2020-03-06T13:15:42.000Z</time>
      </trkpt>
      <trkpt lat="43.51945" lon="6.4177">
        <ele>258.6</ele>
        <time>2020-03-06T13:15:50.000Z</time>
      </trkpt>
      <trkpt lat="43.51938" lon="6.41761">
        <ele>259.2</ele>
        <time>2020-03-06T13:15:58.000Z</time>
      </trkpt>
      <trkpt lat="43.51932" lon="6.4175">
        <ele>260.1</ele>
        <time>2020-03-06T13:16:07.000Z</time>
      </trkpt>
      <trkpt lat="43.51925" lon="6.4174">
        <ele>260.8</ele>
        <time>2020-03-06T13:16:15.000Z</time>
      </trkpt>
      <trkpt lat="43.51919" lon="6.41731">
        <ele>260.7</ele>
        <time>2020-03-06T13:16:22.000Z</time>
      </trkpt>
      <trkpt lat="43.51913" lon="6.4172">
        <ele>259.8</ele>
        <time>2020-03-06T13:16:30.000Z</time>
      </trkpt>
      <trkpt lat="43.51906" lon="6.41709">
        <ele>259.4</ele>
        <time>2020-03-06T13:16:38.000Z</time>
      </trkpt>
      <trkpt lat="43.519" lon="6.417">
        <ele>260</ele>
        <time>2020-03-06T13:16:47.000Z</time>
      </trkpt>
      <trkpt lat="43.51893" lon="6.41691">
        <ele>260.1</ele>
        <time>2020-03-06T13:16:54.000Z</time>
      </trkpt>
      <trkpt lat="43.51886" lon="6.41681">
        <ele>260</ele>
        <time>2020-03-06T13:17:02.000Z</time>
      </trkpt>
      <trkpt lat="43.5188" lon="6.41671">
        <ele>260.3</ele>
        <time>2020-03-06T13:17:10.000Z</time>
      </trkpt>
      <trkpt lat="43.51873" lon="6.41662">
        <ele>260.7</ele>
        <time>2020-03-06T13:17:18.000Z</time>
      </trkpt>
      <trkpt lat="43.51866" lon="6.41652">
        <ele>260.2</ele>
        <time>2020-03-06T13:17:27.000Z</time>
      </trkpt>
      <trkpt lat="43.51858" lon="6.41644">
        <ele>261.1</ele>
        <time>2020-03-06T13:17:34.000Z</time>
      </trkpt>
      <trkpt lat="43.51851" lon="6.41636">
        <ele>260.4</ele>
        <time>2020-03-06T13:17:41.000Z</time>
      </trkpt>
      <trkpt lat="43.51844" lon="6.41627">
        <ele>259.9</ele>
        <time>2020-03-06T13:17:48.000Z</time>
      </trkpt>
      <trkpt lat="43.51837" lon="6.41618">
        <ele>259.2</ele>
        <time>2020-03-06T13:17:56.000Z</time>
      </trkpt>
      <trkpt lat="43.5183" lon="6.41609">
        <ele>260.1</ele>
        <time>2020-03-06T13:18:04.000Z</time>
      </trkpt>
      <trkpt lat="43.51823" lon="6.41599">
        <ele>260.5</ele>
        <time>2020-03-06T13:18:12.000Z</time>
      </trkpt>
      <trkpt lat="43.51816" lon="6.4159">
        <ele>261.6</ele>
        <time>2020-03-06T13:18:20.000Z</time>
      </trkpt>
      <trkpt lat="43.5181" lon="6.4158">
        <ele>262.9</ele>
        <time>2020-03-06T13:18:28.000Z</time>
      </trkpt>
      <trkpt lat="43.51803" lon="6.41572">
        <ele>264.1</ele>
        <time>2020-03-06T13:18:35.000Z</time>
      </trkpt>
      <trkpt lat="43.51796" lon="6.41562">
        <ele>265.9</ele>
        <time>2020-03-06T13:18:44.000Z</time>
      </trkpt>
      <trkpt lat="43.51799" lon="6.4155">
        <ele>266</ele>
        <time>2020-03-06T13:19:01.000Z</time>
      </trkpt>
      <trkpt lat="43.51803" lon="6.41538">
        <ele>266.3</ele>
        <time>2020-03-06T13:19:48.000Z</time>
      </trkpt>
      <trkpt lat="43.51795" lon="6.41542">
        <ele>266.5</ele>
        <time>2020-03-06T13:20:46.000Z</time>
      </trkpt>
      <trkpt lat="43.51785" lon="6.41545">
        <ele>267.5</ele>
        <time>2020-03-06T13:20:56.000Z</time>
      </trkpt>
      <trkpt lat="43.51776" lon="6.41544">
        <ele>266.5</ele>
        <time>2020-03-06T13:21:10.000Z</time>
      </trkpt>
      <trkpt lat="43.5177" lon="6.41554">
        <ele>266.3</ele>
        <time>2020-03-06T13:21:56.000Z</time>
      </trkpt>
      <trkpt lat="43.51765" lon="6.41564">
        <ele>266.8</ele>
        <time>2020-03-06T13:26:16.000Z</time>
      </trkpt>
      <trkpt lat="43.51757" lon="6.41571">
        <ele>266</ele>
        <time>2020-03-06T13:26:28.000Z</time>
      </trkpt>
      <trkpt lat="43.5175" lon="6.41579">
        <ele>265.5</ele>
        <time>2020-03-06T13:26:37.000Z</time>
      </trkpt>
      <trkpt lat="43.51741" lon="6.41576">
        <ele>265.9</ele>
        <time>2020-03-06T13:26:49.000Z</time>
      </trkpt>
      <trkpt lat="43.51734" lon="6.41567">
        <ele>266.8</ele>
        <time>2020-03-06T13:27:00.000Z</time>
      </trkpt>
      <trkpt lat="43.51727" lon="6.41557">
        <ele>268.1</ele>
        <time>2020-03-06T13:27:12.000Z</time>
      </trkpt>
      <trkpt lat="43.5172" lon="6.41548">
        <ele>269.3</ele>
        <time>2020-03-06T13:27:22.000Z</time>
      </trkpt>
      <trkpt lat="43.51713" lon="6.41541">
        <ele>269.4</ele>
        <time>2020-03-06T13:27:30.000Z</time>
      </trkpt>
      <trkpt lat="43.51704" lon="6.41539">
        <ele>270.1</ele>
        <time>2020-03-06T13:27:41.000Z</time>
      </trkpt>
      <trkpt lat="43.51694" lon="6.41542">
        <ele>270.1</ele>
        <time>2020-03-06T13:27:52.000Z</time>
      </trkpt>
      <trkpt lat="43.51686" lon="6.41546">
        <ele>267.9</ele>
        <time>2020-03-06T13:28:44.000Z</time>
      </trkpt>
      <trkpt lat="43.51678" lon="6.41552">
        <ele>268</ele>
        <time>2020-03-06T13:30:01.000Z</time>
      </trkpt>
      <trkpt lat="43.51671" lon="6.41561">
        <ele>267.8</ele>
        <time>2020-03-06T13:30:11.000Z</time>
      </trkpt>
      <trkpt lat="43.51664" lon="6.41572">
        <ele>267.6</ele>
        <time>2020-03-06T13:30:20.000Z</time>
      </trkpt>
      <trkpt lat="43.51658" lon="6.41582">
        <ele>267.8</ele>
        <time>2020-03-06T13:30:29.000Z</time>
      </trkpt>
      <trkpt lat="43.5165" lon="6.4159">
        <ele>268.2</ele>
        <time>2020-03-06T13:30:38.000Z</time>
      </trkpt>
      <trkpt lat="43.51642" lon="6.41595">
        <ele>269.3</ele>
        <time>2020-03-06T13:30:51.000Z</time>
      </trkpt>
      <trkpt lat="43.51635" lon="6.41586">
        <ele>270.4</ele>
        <time>2020-03-06T13:31:02.000Z</time>
      </trkpt>
      <trkpt lat="43.51628" lon="6.41577">
        <ele>272</ele>
        <time>2020-03-06T13:31:13.000Z</time>
      </trkpt>
      <trkpt lat="43.51622" lon="6.41569">
        <ele>273.4</ele>
        <time>2020-03-06T13:31:22.000Z</time>
      </trkpt>
      <trkpt lat="43.51616" lon="6.41559">
        <ele>273.3</ele>
        <time>2020-03-06T13:31:34.000Z</time>
      </trkpt>
      <trkpt lat="43.5161" lon="6.41547">
        <ele>273.8</ele>
        <time>2020-03-06T13:31:45.000Z</time>
      </trkpt>
      <trkpt lat="43.51602" lon="6.41541">
        <ele>273.8</ele>
        <time>2020-03-06T13:31:55.000Z</time>
      </trkpt>
      <trkpt lat="43.51595" lon="6.41532">
        <ele>272.8</ele>
        <time>2020-03-06T13:33:55.000Z</time>
      </trkpt>
      <trkpt lat="43.5159" lon="6.41521">
        <ele>272.4</ele>
        <time>2020-03-06T13:34:04.000Z</time>
      </trkpt>
      <trkpt lat="43.51583" lon="6.41511">
        <ele>271.3</ele>
        <time>2020-03-06T13:34:13.000Z</time>
      </trkpt>
      <trkpt lat="43.51577" lon="6.41501">
        <ele>269.3</ele>
        <time>2020-03-06T13:34:21.000Z</time>
      </trkpt>
      <trkpt lat="43.51572" lon="6.41491">
        <ele>267.8</ele>
        <time>2020-03-06T13:34:29.000Z</time>
      </trkpt>
      <trkpt lat="43.51565" lon="6.4148">
        <ele>266</ele>
        <time>2020-03-06T13:34:36.000Z</time>
      </trkpt>
      <trkpt lat="43.51559" lon="6.41469">
        <ele>265.2</ele>
        <time>2020-03-06T13:34:43.000Z</time>
      </trkpt>
      <trkpt lat="43.51554" lon="6.41458">
        <ele>264.7</ele>
        <time>2020-03-06T13:34:49.000Z</time>
      </trkpt>
      <trkpt lat="43.51548" lon="6.41449">
        <ele>263.1</ele>
        <time>2020-03-06T13:34:55.000Z</time>
      </trkpt>
      <trkpt lat="43.51542" lon="6.41438">
        <ele>262.4</ele>
        <time>2020-03-06T13:35:02.000Z</time>
      </trkpt>
      <trkpt lat="43.51535" lon="6.41428">
        <ele>261.1</ele>
        <time>2020-03-06T13:35:09.000Z</time>
      </trkpt>
      <trkpt lat="43.5153" lon="6.41417">
        <ele>259.8</ele>
        <time>2020-03-06T13:35:16.000Z</time>
      </trkpt>
      <trkpt lat="43.51524" lon="6.41405">
        <ele>258.7</ele>
        <time>2020-03-06T13:35:24.000Z</time>
      </trkpt>
      <trkpt lat="43.51518" lon="6.41395">
        <ele>258</ele>
        <time>2020-03-06T13:35:32.000Z</time>
      </trkpt>
      <trkpt lat="43.51512" lon="6.41384">
        <ele>257.5</ele>
        <time>2020-03-06T13:35:39.000Z</time>
      </trkpt>
      <trkpt lat="43.51508" lon="6.41373">
        <ele>256.6</ele>
        <time>2020-03-06T13:35:55.000Z</time>
      </trkpt>
      <trkpt lat="43.515" lon="6.41364">
        <ele>256.4</ele>
        <time>2020-03-06T13:36:16.000Z</time>
      </trkpt>
      <trkpt lat="43.51494" lon="6.41354">
        <ele>255.1</ele>
        <time>2020-03-06T13:36:37.000Z</time>
      </trkpt>
      <trkpt lat="43.51488" lon="6.41344">
        <ele>254.4</ele>
        <time>2020-03-06T13:36:46.000Z</time>
      </trkpt>
      <trkpt lat="43.51482" lon="6.41333">
        <ele>254.2</ele>
        <time>2020-03-06T13:36:55.000Z</time>
      </trkpt>
      <trkpt lat="43.51476" lon="6.41324">
        <ele>254</ele>
        <time>2020-03-06T13:37:03.000Z</time>
      </trkpt>
      <trkpt lat="43.51469" lon="6.41313">
        <ele>253.9</ele>
        <time>2020-03-06T13:37:11.000Z</time>
      </trkpt>
      <trkpt lat="43.51463" lon="6.41303">
        <ele>254.2</ele>
        <time>2020-03-06T13:37:19.000Z</time>
      </trkpt>
      <trkpt lat="43.51457" lon="6.41293">
        <ele>253.6</ele>
        <time>2020-03-06T13:37:27.000Z</time>
      </trkpt>
      <trkpt lat="43.51451" lon="6.41282">
        <ele>253.4</ele>
        <time>2020-03-06T13:37:35.000Z</time>
      </trkpt>
      <trkpt lat="43.51444" lon="6.41273">
        <ele>254</ele>
        <time>2020-03-06T13:37:43.000Z</time>
      </trkpt>
      <trkpt lat="43.51447" lon="6.4126">
        <ele>253.9</ele>
        <time>2020-03-06T13:37:53.000Z</time>
      </trkpt>
      <trkpt lat="43.51451" lon="6.41248">
        <ele>253.6</ele>
        <time>2020-03-06T13:38:01.000Z</time>
      </trkpt>
      <trkpt lat="43.51454" lon="6.41237">
        <ele>253.2</ele>
        <time>2020-03-06T13:38:09.000Z</time>
      </trkpt>
      <trkpt lat="43.51458" lon="6.41225">
        <ele>253.3</ele>
        <time>2020-03-06T13:38:18.000Z</time>
      </trkpt>
      <trkpt lat="43.5146" lon="6.41211">
        <ele>252.9</ele>
        <time>2020-03-06T13:38:27.000Z</time>
      </trkpt>
      <trkpt lat="43.51457" lon="6.412">
        <ele>251.7</ele>
        <time>2020-03-06T13:38:35.000Z</time>
      </trkpt>
      <trkpt lat="43.51454" lon="6.41187">
        <ele>251.6</ele>
        <time>2020-03-06T13:38:45.000Z</time>
      </trkpt>
      <trkpt lat="43.51446" lon="6.41178">
        <ele>251.4</ele>
        <time>2020-03-06T13:38:54.000Z</time>
      </trkpt>
      <trkpt lat="43.51438" lon="6.41172">
        <ele>251.3</ele>
        <time>2020-03-06T13:39:01.000Z</time>
      </trkpt>
      <trkpt lat="43.51431" lon="6.41164">
        <ele>251.8</ele>
        <time>2020-03-06T13:39:08.000Z</time>
      </trkpt>
      <trkpt lat="43.51425" lon="6.41154">
        <ele>253.4</ele>
        <time>2020-03-06T13:39:17.000Z</time>
      </trkpt>
      <trkpt lat="43.51418" lon="6.41145">
        <ele>254.4</ele>
        <time>2020-03-06T13:39:24.000Z</time>
      </trkpt>
      <trkpt lat="43.51411" lon="6.41137">
        <ele>254.9</ele>
        <time>2020-03-06T13:39:32.000Z</time>
      </trkpt>
      <trkpt lat="43.51403" lon="6.41127">
        <ele>255.4</ele>
        <time>2020-03-06T13:39:41.000Z</time>
      </trkpt>
      <trkpt lat="43.51396" lon="6.41118">
        <ele>255.7</ele>
        <time>2020-03-06T13:39:52.000Z</time>
      </trkpt>
      <trkpt lat="43.51389" lon="6.41109">
        <ele>257.1</ele>
        <time>2020-03-06T13:40:02.000Z</time>
      </trkpt>
      <trkpt lat="43.51381" lon="6.41105">
        <ele>258.3</ele>
        <time>2020-03-06T13:40:10.000Z</time>
      </trkpt>
      <trkpt lat="43.51373" lon="6.41097">
        <ele>259.1</ele>
        <time>2020-03-06T13:40:19.000Z</time>
      </trkpt>
      <trkpt lat="43.51365" lon="6.41089">
        <ele>259.1</ele>
        <time>2020-03-06T13:40:27.000Z</time>
      </trkpt>
      <trkpt lat="43.51357" lon="6.41085">
        <ele>259.2</ele>
        <time>2020-03-06T13:40:37.000Z</time>
      </trkpt>
      <trkpt lat="43.51348" lon="6.41078">
        <ele>259.2</ele>
        <time>2020-03-06T13:40:45.000Z</time>
      </trkpt>
      <trkpt lat="43.51339" lon="6.41078">
        <ele>259.6</ele>
        <time>2020-03-06T13:40:54.000Z</time>
      </trkpt>
      <trkpt lat="43.51329" lon="6.41081">
        <ele>260.3</ele>
        <time>2020-03-06T13:41:04.000Z</time>
      </trkpt>
      <trkpt lat="43.51321" lon="6.41074">
        <ele>260.3</ele>
        <time>2020-03-06T13:41:14.000Z</time>
      </trkpt>
      <trkpt lat="43.51311" lon="6.41071">
        <ele>259.7</ele>
        <time>2020-03-06T13:41:26.000Z</time>
      </trkpt>
      <trkpt lat="43.51303" lon="6.41076">
        <ele>259.7</ele>
        <time>2020-03-06T13:41:35.000Z</time>
      </trkpt>
      <trkpt lat="43.51293" lon="6.41077">
        <ele>260.1</ele>
        <time>2020-03-06T13:41:44.000Z</time>
      </trkpt>
      <trkpt lat="43.51285" lon="6.41082">
        <ele>260.4</ele>
        <time>2020-03-06T13:41:52.000Z</time>
      </trkpt>
      <trkpt lat="43.51276" lon="6.41086">
        <ele>260.8</ele>
        <time>2020-03-06T13:42:00.000Z</time>
      </trkpt>
      <trkpt lat="43.51267" lon="6.41091">
        <ele>260.4</ele>
        <time>2020-03-06T13:42:09.000Z</time>
      </trkpt>
      <trkpt lat="43.51258" lon="6.41093">
        <ele>259.6</ele>
        <time>2020-03-06T13:42:17.000Z</time>
      </trkpt>
      <trkpt lat="43.5125" lon="6.41099">
        <ele>259.7</ele>
        <time>2020-03-06T13:42:26.000Z</time>
      </trkpt>
      <trkpt lat="43.51241" lon="6.41102">
        <ele>259.4</ele>
        <time>2020-03-06T13:42:34.000Z</time>
      </trkpt>
      <trkpt lat="43.51232" lon="6.41107">
        <ele>258.9</ele>
        <time>2020-03-06T13:42:42.000Z</time>
      </trkpt>
      <trkpt lat="43.51222" lon="6.4111">
        <ele>258.6</ele>
        <time>2020-03-06T13:42:51.000Z</time>
      </trkpt>
      <trkpt lat="43.51213" lon="6.41116">
        <ele>257.9</ele>
        <time>2020-03-06T13:43:01.000Z</time>
      </trkpt>
      <trkpt lat="43.51205" lon="6.41122">
        <ele>258.1</ele>
        <time>2020-03-06T13:43:10.000Z</time>
      </trkpt>
      <trkpt lat="43.51196" lon="6.41121">
        <ele>257.7</ele>
        <time>2020-03-06T13:43:18.000Z</time>
      </trkpt>
      <trkpt lat="43.51186" lon="6.41124">
        <ele>257.2</ele>
        <time>2020-03-06T13:43:27.000Z</time>
      </trkpt>
      <trkpt lat="43.51177" lon="6.41128">
        <ele>257.1</ele>
        <time>2020-03-06T13:43:36.000Z</time>
      </trkpt>
      <trkpt lat="43.51167" lon="6.41128">
        <ele>256.9</ele>
        <time>2020-03-06T13:43:44.000Z</time>
      </trkpt>
      <trkpt lat="43.51158" lon="6.41126">
        <ele>256.9</ele>
        <time>2020-03-06T13:43:55.000Z</time>
      </trkpt>
      <trkpt lat="43.51149" lon="6.4112">
        <ele>257</ele>
        <time>2020-03-06T13:44:05.000Z</time>
      </trkpt>
      <trkpt lat="43.5114" lon="6.41116">
        <ele>256.8</ele>
        <time>2020-03-06T13:44:15.000Z</time>
      </trkpt>
      <trkpt lat="43.51132" lon="6.41123">
        <ele>257.7</ele>
        <time>2020-03-06T13:44:26.000Z</time>
      </trkpt>
      <trkpt lat="43.51126" lon="6.41132">
        <ele>258.2</ele>
        <time>2020-03-06T13:44:36.000Z</time>
      </trkpt>
      <trkpt lat="43.51118" lon="6.4114">
        <ele>258.7</ele>
        <time>2020-03-06T13:44:46.000Z</time>
      </trkpt>
      <trkpt lat="43.51111" lon="6.41149">
        <ele>259.2</ele>
        <time>2020-03-06T13:44:56.000Z</time>
      </trkpt>
      <trkpt lat="43.51104" lon="6.41157">
        <ele>260</ele>
        <time>2020-03-06T13:45:05.000Z</time>
      </trkpt>
      <trkpt lat="43.51095" lon="6.41164">
        <ele>260.4</ele>
        <time>2020-03-06T13:45:14.000Z</time>
      </trkpt>
      <trkpt lat="43.51088" lon="6.41173">
        <ele>260.9</ele>
        <time>2020-03-06T13:45:24.000Z</time>
      </trkpt>
      <trkpt lat="43.51081" lon="6.41182">
        <ele>261.7</ele>
        <time>2020-03-06T13:45:34.000Z</time>
      </trkpt>
      <trkpt lat="43.51072" lon="6.41186">
        <ele>262.2</ele>
        <time>2020-03-06T13:45:45.000Z</time>
      </trkpt>
      <trkpt lat="43.51063" lon="6.41188">
        <ele>262</ele>
        <time>2020-03-06T13:45:55.000Z</time>
      </trkpt>
      <trkpt lat="43.51054" lon="6.41194">
        <ele>262.9</ele>
        <time>2020-03-06T13:46:06.000Z</time>
      </trkpt>
      <trkpt lat="43.51047" lon="6.41202">
        <ele>263.5</ele>
        <time>2020-03-06T13:46:19.000Z</time>
      </trkpt>
      <trkpt lat="43.51038" lon="6.41207">
        <ele>264.4</ele>
        <time>2020-03-06T13:46:34.000Z</time>
      </trkpt>
      <trkpt lat="43.51029" lon="6.41212">
        <ele>265.1</ele>
        <time>2020-03-06T13:46:44.000Z</time>
      </trkpt>
      <trkpt lat="43.51021" lon="6.4122">
        <ele>265.9</ele>
        <time>2020-03-06T13:46:53.000Z</time>
      </trkpt>
      <trkpt lat="43.51014" lon="6.41227">
        <ele>266.5</ele>
        <time>2020-03-06T13:47:03.000Z</time>
      </trkpt>
      <trkpt lat="43.51005" lon="6.41232">
        <ele>267.3</ele>
        <time>2020-03-06T13:47:14.000Z</time>
      </trkpt>
      <trkpt lat="43.50995" lon="6.41235">
        <ele>267.9</ele>
        <time>2020-03-06T13:47:23.000Z</time>
      </trkpt>
      <trkpt lat="43.50986" lon="6.41238">
        <ele>268.3</ele>
        <time>2020-03-06T13:47:32.000Z</time>
      </trkpt>
      <trkpt lat="43.50978" lon="6.41244">
        <ele>268.8</ele>
        <time>2020-03-06T13:47:42.000Z</time>
      </trkpt>
      <trkpt lat="43.5097" lon="6.41251">
        <ele>268.5</ele>
        <time>2020-03-06T13:47:50.000Z</time>
      </trkpt>
      <trkpt lat="43.50963" lon="6.41261">
        <ele>268.2</ele>
        <time>2020-03-06T13:48:00.000Z</time>
      </trkpt>
      <trkpt lat="43.50955" lon="6.41268">
        <ele>268</ele>
        <time>2020-03-06T13:48:08.000Z</time>
      </trkpt>
      <trkpt lat="43.50947" lon="6.41274">
        <ele>267.6</ele>
        <time>2020-03-06T13:48:15.000Z</time>
      </trkpt>
      <trkpt lat="43.50939" lon="6.41283">
        <ele>268.1</ele>
        <time>2020-03-06T13:48:24.000Z</time>
      </trkpt>
      <trkpt lat="43.50932" lon="6.4129">
        <ele>267.5</ele>
        <time>2020-03-06T13:48:32.000Z</time>
      </trkpt>
      <trkpt lat="43.50926" lon="6.413">
        <ele>266.7</ele>
        <time>2020-03-06T13:48:40.000Z</time>
      </trkpt>
      <trkpt lat="43.50918" lon="6.4131">
        <ele>266.1</ele>
        <time>2020-03-06T13:48:51.000Z</time>
      </trkpt>
      <trkpt lat="43.50911" lon="6.41318">
        <ele>265.7</ele>
        <time>2020-03-06T13:48:59.000Z</time>
      </trkpt>
      <trkpt lat="43.50904" lon="6.41328">
        <ele>265.2</ele>
        <time>2020-03-06T13:49:08.000Z</time>
      </trkpt>
      <trkpt lat="43.50899" lon="6.41338">
        <ele>264.3</ele>
        <time>2020-03-06T13:49:17.000Z</time>
      </trkpt>
      <trkpt lat="43.50893" lon="6.41347">
        <ele>263.7</ele>
        <time>2020-03-06T13:49:25.000Z</time>
      </trkpt>
      <trkpt lat="43.50887" lon="6.41358">
        <ele>263</ele>
        <time>2020-03-06T13:49:35.000Z</time>
      </trkpt>
      <trkpt lat="43.5088" lon="6.41369">
        <ele>261.9</ele>
        <time>2020-03-06T13:49:45.000Z</time>
      </trkpt>
      <trkpt lat="43.50875" lon="6.4138">
        <ele>261.3</ele>
        <time>2020-03-06T13:49:54.000Z</time>
      </trkpt>
      <trkpt lat="43.5087" lon="6.41392">
        <ele>260.6</ele>
        <time>2020-03-06T13:50:03.000Z</time>
      </trkpt>
      <trkpt lat="43.50865" lon="6.41403">
        <ele>260</ele>
        <time>2020-03-06T13:50:12.000Z</time>
      </trkpt>
      <trkpt lat="43.50859" lon="6.41413">
        <ele>259.7</ele>
        <time>2020-03-06T13:50:22.000Z</time>
      </trkpt>
      <trkpt lat="43.50853" lon="6.41424">
        <ele>259.6</ele>
        <time>2020-03-06T13:50:31.000Z</time>
      </trkpt>
      <trkpt lat="43.50846" lon="6.41433">
        <ele>258.6</ele>
        <time>2020-03-06T13:50:41.000Z</time>
      </trkpt>
      <trkpt lat="43.5084" lon="6.41443">
        <ele>258</ele>
        <time>2020-03-06T13:50:49.000Z</time>
      </trkpt>
      <trkpt lat="43.50833" lon="6.41453">
        <ele>257.1</ele>
        <time>2020-03-06T13:50:58.000Z</time>
      </trkpt>
      <trkpt lat="43.50828" lon="6.41465">
        <ele>257.3</ele>
        <time>2020-03-06T13:51:07.000Z</time>
      </trkpt>
      <trkpt lat="43.50822" lon="6.41474">
        <ele>257.3</ele>
        <time>2020-03-06T13:51:17.000Z</time>
      </trkpt>
      <trkpt lat="43.50815" lon="6.41483">
        <ele>257.4</ele>
        <time>2020-03-06T13:51:26.000Z</time>
      </trkpt>
      <trkpt lat="43.50811" lon="6.41494">
        <ele>257.9</ele>
        <time>2020-03-06T13:52:02.000Z</time>
      </trkpt>
      <trkpt lat="43.5081" lon="6.41507">
        <ele>257.8</ele>
        <time>2020-03-06T13:56:02.000Z</time>
      </trkpt>
      <trkpt lat="43.50806" lon="6.41519">
        <ele>258</ele>
        <time>2020-03-06T13:56:12.000Z</time>
      </trkpt>
      <trkpt lat="43.50803" lon="6.41532">
        <ele>257.9</ele>
        <time>2020-03-06T13:56:22.000Z</time>
      </trkpt>
      <trkpt lat="43.50798" lon="6.41542">
        <ele>258.1</ele>
        <time>2020-03-06T13:56:31.000Z</time>
      </trkpt>
      <trkpt lat="43.50791" lon="6.4155">
        <ele>257.8</ele>
        <time>2020-03-06T13:56:39.000Z</time>
      </trkpt>
      <trkpt lat="43.50785" lon="6.4156">
        <ele>257.8</ele>
        <time>2020-03-06T13:56:46.000Z</time>
      </trkpt>
      <trkpt lat="43.50779" lon="6.4157">
        <ele>258</ele>
        <time>2020-03-06T13:56:54.000Z</time>
      </trkpt>
      <trkpt lat="43.50774" lon="6.41581">
        <ele>258.1</ele>
        <time>2020-03-06T13:57:03.000Z</time>
      </trkpt>
      <trkpt lat="43.50768" lon="6.41592">
        <ele>257.9</ele>
        <time>2020-03-06T13:57:12.000Z</time>
      </trkpt>
      <trkpt lat="43.50763" lon="6.41605">
        <ele>257.5</ele>
        <time>2020-03-06T13:57:20.000Z</time>
      </trkpt>
      <trkpt lat="43.50759" lon="6.41617">
        <ele>257.2</ele>
        <time>2020-03-06T13:57:28.000Z</time>
      </trkpt>
      <trkpt lat="43.50754" lon="6.41628">
        <ele>257.3</ele>
        <time>2020-03-06T13:57:36.000Z</time>
      </trkpt>
      <trkpt lat="43.50752" lon="6.41641">
        <ele>257.1</ele>
        <time>2020-03-06T13:57:44.000Z</time>
      </trkpt>
      <trkpt lat="43.50751" lon="6.41654">
        <ele>257.2</ele>
        <time>2020-03-06T13:57:52.000Z</time>
      </trkpt>
      <trkpt lat="43.50746" lon="6.41666">
        <ele>258.1</ele>
        <time>2020-03-06T13:58:01.000Z</time>
      </trkpt>
      <trkpt lat="43.50745" lon="6.41678">
        <ele>258.2</ele>
        <time>2020-03-06T13:58:09.000Z</time>
      </trkpt>
      <trkpt lat="43.50742" lon="6.41691">
        <ele>258.3</ele>
        <time>2020-03-06T13:58:19.000Z</time>
      </trkpt>
      <trkpt lat="43.50738" lon="6.41703">
        <ele>258.2</ele>
        <time>2020-03-06T13:58:28.000Z</time>
      </trkpt>
      <trkpt lat="43.50735" lon="6.41715">
        <ele>258</ele>
        <time>2020-03-06T13:58:37.000Z</time>
      </trkpt>
      <trkpt lat="43.5073" lon="6.41727">
        <ele>257.6</ele>
        <time>2020-03-06T13:58:46.000Z</time>
      </trkpt>
      <trkpt lat="43.50725" lon="6.41737">
        <ele>257.5</ele>
        <time>2020-03-06T13:58:54.000Z</time>
      </trkpt>
      <trkpt lat="43.50719" lon="6.41746">
        <ele>257.4</ele>
        <time>2020-03-06T13:59:02.000Z</time>
      </trkpt>
      <trkpt lat="43.50712" lon="6.41755">
        <ele>256.9</ele>
        <time>2020-03-06T13:59:11.000Z</time>
      </trkpt>
      <trkpt lat="43.50705" lon="6.41764">
        <ele>256.8</ele>
        <time>2020-03-06T13:59:19.000Z</time>
      </trkpt>
      <trkpt lat="43.507" lon="6.41775">
        <ele>256.3</ele>
        <time>2020-03-06T13:59:28.000Z</time>
      </trkpt>
      <trkpt lat="43.50694" lon="6.41784">
        <ele>255.1</ele>
        <time>2020-03-06T13:59:39.000Z</time>
      </trkpt>
      <trkpt lat="43.50686" lon="6.41792">
        <ele>254.4</ele>
        <time>2020-03-06T13:59:49.000Z</time>
      </trkpt>
      <trkpt lat="43.50677" lon="6.41798">
        <ele>253.6</ele>
        <time>2020-03-06T13:59:58.000Z</time>
      </trkpt>
      <trkpt lat="43.50668" lon="6.41801">
        <ele>252.9</ele>
        <time>2020-03-06T14:00:06.000Z</time>
      </trkpt>
      <trkpt lat="43.50661" lon="6.4181">
        <ele>252.4</ele>
        <time>2020-03-06T14:00:15.000Z</time>
      </trkpt>
      <trkpt lat="43.50652" lon="6.41817">
        <ele>251.8</ele>
        <time>2020-03-06T14:00:23.000Z</time>
      </trkpt>
      <trkpt lat="43.50644" lon="6.41823">
        <ele>250.9</ele>
        <time>2020-03-06T14:00:31.000Z</time>
      </trkpt>
      <trkpt lat="43.50637" lon="6.41832">
        <ele>249.8</ele>
        <time>2020-03-06T14:00:41.000Z</time>
      </trkpt>
      <trkpt lat="43.50629" lon="6.4184">
        <ele>249.3</ele>
        <time>2020-03-06T14:00:51.000Z</time>
      </trkpt>
      <trkpt lat="43.50621" lon="6.41848">
        <ele>248.4</ele>
        <time>2020-03-06T14:01:01.000Z</time>
      </trkpt>
      <trkpt lat="43.50612" lon="6.41853">
        <ele>247.5</ele>
        <time>2020-03-06T14:01:10.000Z</time>
      </trkpt>
      <trkpt lat="43.50605" lon="6.41863">
        <ele>246.9</ele>
        <time>2020-03-06T14:01:19.000Z</time>
      </trkpt>
      <trkpt lat="43.50597" lon="6.41872">
        <ele>246.1</ele>
        <time>2020-03-06T14:01:28.000Z</time>
      </trkpt>
      <trkpt lat="43.50591" lon="6.41881">
        <ele>245.8</ele>
        <time>2020-03-06T14:01:37.000Z</time>
      </trkpt>
      <trkpt lat="43.50582" lon="6.41889">
        <ele>245.1</ele>
        <time>2020-03-06T14:01:46.000Z</time>
      </trkpt>
      <trkpt lat="43.50574" lon="6.41896">
        <ele>244.7</ele>
        <time>2020-03-06T14:01:56.000Z</time>
      </trkpt>
      <trkpt lat="43.50567" lon="6.41904">
        <ele>243.8</ele>
        <time>2020-03-06T14:02:06.000Z</time>
      </trkpt>
      <trkpt lat="43.50558" lon="6.41909">
        <ele>243.2</ele>
        <time>2020-03-06T14:02:15.000Z</time>
      </trkpt>
      <trkpt lat="43.50551" lon="6.41916">
        <ele>242.2</ele>
        <time>2020-03-06T14:02:29.000Z</time>
      </trkpt>
      <trkpt lat="43.50543" lon="6.41923">
        <ele>241.2</ele>
        <time>2020-03-06T14:04:23.000Z</time>
      </trkpt>
      <trkpt lat="43.50542" lon="6.41936">
        <ele>241.2</ele>
        <time>2020-03-06T14:04:35.000Z</time>
      </trkpt>
      <trkpt lat="43.50543" lon="6.4195">
        <ele>241.2</ele>
        <time>2020-03-06T14:04:43.000Z</time>
      </trkpt>
      <trkpt lat="43.50544" lon="6.41962">
        <ele>240.8</ele>
        <time>2020-03-06T14:04:51.000Z</time>
      </trkpt>
      <trkpt lat="43.50549" lon="6.41973">
        <ele>240.2</ele>
        <time>2020-03-06T14:04:59.000Z</time>
      </trkpt>
      <trkpt lat="43.50557" lon="6.4198">
        <ele>239.5</ele>
        <time>2020-03-06T14:05:07.000Z</time>
      </trkpt>
      <trkpt lat="43.50566" lon="6.41983">
        <ele>239</ele>
        <time>2020-03-06T14:05:13.000Z</time>
      </trkpt>
      <trkpt lat="43.50575" lon="6.41983">
        <ele>238.1</ele>
        <time>2020-03-06T14:05:22.000Z</time>
      </trkpt>
      <trkpt lat="43.50585" lon="6.41984">
        <ele>236.9</ele>
        <time>2020-03-06T14:05:32.000Z</time>
      </trkpt>
      <trkpt lat="43.50595" lon="6.41983">
        <ele>235.9</ele>
        <time>2020-03-06T14:05:40.000Z</time>
      </trkpt>
      <trkpt lat="43.50604" lon="6.41984">
        <ele>235</ele>
        <time>2020-03-06T14:05:48.000Z</time>
      </trkpt>
      <trkpt lat="43.50614" lon="6.41981">
        <ele>234</ele>
        <time>2020-03-06T14:05:58.000Z</time>
      </trkpt>
      <trkpt lat="43.50624" lon="6.41979">
        <ele>233</ele>
        <time>2020-03-06T14:06:06.000Z</time>
      </trkpt>
      <trkpt lat="43.50633" lon="6.41979">
        <ele>232</ele>
        <time>2020-03-06T14:06:14.000Z</time>
      </trkpt>
      <trkpt lat="43.50641" lon="6.41986">
        <ele>230.4</ele>
        <time>2020-03-06T14:06:24.000Z</time>
      </trkpt>
      <trkpt lat="43.50637" lon="6.41998">
        <ele>228.4</ele>
        <time>2020-03-06T14:06:36.000Z</time>
      </trkpt>
      <trkpt lat="43.50631" lon="6.42008">
        <ele>226.8</ele>
        <time>2020-03-06T14:06:46.000Z</time>
      </trkpt>
      <trkpt lat="43.50626" lon="6.4202">
        <ele>225.5</ele>
        <time>2020-03-06T14:06:56.000Z</time>
      </trkpt>
      <trkpt lat="43.50626" lon="6.42034">
        <ele>224.4</ele>
        <time>2020-03-06T14:07:06.000Z</time>
      </trkpt>
      <trkpt lat="43.50627" lon="6.42047">
        <ele>224.3</ele>
        <time>2020-03-06T14:07:43.000Z</time>
      </trkpt>
      <trkpt lat="43.50635" lon="6.42041">
        <ele>224.6</ele>
        <time>2020-03-06T14:08:07.000Z</time>
      </trkpt>
      <trkpt lat="43.50643" lon="6.42036">
        <ele>224.6</ele>
        <time>2020-03-06T14:08:18.000Z</time>
      </trkpt>
      <trkpt lat="43.50651" lon="6.4203">
        <ele>224.8</ele>
        <time>2020-03-06T14:08:27.000Z</time>
      </trkpt>
      <trkpt lat="43.5066" lon="6.42024">
        <ele>225.2</ele>
        <time>2020-03-06T14:08:36.000Z</time>
      </trkpt>
      <trkpt lat="43.50669" lon="6.4202">
        <ele>225.7</ele>
        <time>2020-03-06T14:08:46.000Z</time>
      </trkpt>
      <trkpt lat="43.50675" lon="6.4203">
        <ele>225.5</ele>
        <time>2020-03-06T14:09:03.000Z</time>
      </trkpt>
      <trkpt lat="43.50681" lon="6.42039">
        <ele>224</ele>
        <time>2020-03-06T14:09:16.000Z</time>
      </trkpt>
      <trkpt lat="43.50689" lon="6.42048">
        <ele>222.9</ele>
        <time>2020-03-06T14:09:27.000Z</time>
      </trkpt>
      <trkpt lat="43.50694" lon="6.42058">
        <ele>221.8</ele>
        <time>2020-03-06T14:09:39.000Z</time>
      </trkpt>
      <trkpt lat="43.507" lon="6.42068">
        <ele>221.1</ele>
        <time>2020-03-06T14:09:48.000Z</time>
      </trkpt>
      <trkpt lat="43.50706" lon="6.42078">
        <ele>220.7</ele>
        <time>2020-03-06T14:09:59.000Z</time>
      </trkpt>
      <trkpt lat="43.50709" lon="6.4209">
        <ele>221.3</ele>
        <time>2020-03-06T14:10:09.000Z</time>
      </trkpt>
      <trkpt lat="43.50706" lon="6.42102">
        <ele>221.2</ele>
        <time>2020-03-06T14:10:25.000Z</time>
      </trkpt>
      <trkpt lat="43.50711" lon="6.42112">
        <ele>222.1</ele>
        <time>2020-03-06T14:12:53.000Z</time>
      </trkpt>
      <trkpt lat="43.50705" lon="6.42122">
        <ele>221.3</ele>
        <time>2020-03-06T14:13:09.000Z</time>
      </trkpt>
      <trkpt lat="43.50697" lon="6.4213">
        <ele>221.5</ele>
        <time>2020-03-06T14:13:36.000Z</time>
      </trkpt>
      <trkpt lat="43.50698" lon="6.42143">
        <ele>221.2</ele>
        <time>2020-03-06T14:13:47.000Z</time>
      </trkpt>
      <trkpt lat="43.50704" lon="6.42153">
        <ele>221.8</ele>
        <time>2020-03-06T14:13:56.000Z</time>
      </trkpt>
      <trkpt lat="43.50709" lon="6.42164">
        <ele>221.8</ele>
        <time>2020-03-06T14:14:05.000Z</time>
      </trkpt>
      <trkpt lat="43.50716" lon="6.42173">
        <ele>221.8</ele>
        <time>2020-03-06T14:14:15.000Z</time>
      </trkpt>
      <trkpt lat="43.50722" lon="6.42182">
        <ele>221.4</ele>
        <time>2020-03-06T14:14:25.000Z</time>
      </trkpt>
      <trkpt lat="43.50728" lon="6.42193">
        <ele>221.2</ele>
        <time>2020-03-06T14:14:34.000Z</time>
      </trkpt>
      <trkpt lat="43.50734" lon="6.42202">
        <ele>221.1</ele>
        <time>2020-03-06T14:14:43.000Z</time>
      </trkpt>
      <trkpt lat="43.5074" lon="6.42212">
        <ele>220.9</ele>
        <time>2020-03-06T14:14:52.000Z</time>
      </trkpt>
      <trkpt lat="43.50745" lon="6.42223">
        <ele>221</ele>
        <time>2020-03-06T14:15:02.000Z</time>
      </trkpt>
      <trkpt lat="43.50749" lon="6.42236">
        <ele>222.3</ele>
        <time>2020-03-06T14:15:12.000Z</time>
      </trkpt>
      <trkpt lat="43.50748" lon="6.42248">
        <ele>222.6</ele>
        <time>2020-03-06T14:15:24.000Z</time>
      </trkpt>
      <trkpt lat="43.5075" lon="6.42261">
        <ele>222.5</ele>
        <time>2020-03-06T14:15:34.000Z</time>
      </trkpt>
      <trkpt lat="43.50754" lon="6.42274">
        <ele>223</ele>
        <time>2020-03-06T14:15:44.000Z</time>
      </trkpt>
      <trkpt lat="43.50755" lon="6.42288">
        <ele>223.4</ele>
        <time>2020-03-06T14:15:54.000Z</time>
      </trkpt>
      <trkpt lat="43.50757" lon="6.423">
        <ele>223.8</ele>
        <time>2020-03-06T14:16:03.000Z</time>
      </trkpt>
      <trkpt lat="43.5076" lon="6.42313">
        <ele>224.9</ele>
        <time>2020-03-06T14:16:12.000Z</time>
      </trkpt>
      <trkpt lat="43.50764" lon="6.42325">
        <ele>225.7</ele>
        <time>2020-03-06T14:16:21.000Z</time>
      </trkpt>
      <trkpt lat="43.50767" lon="6.42337">
        <ele>226.5</ele>
        <time>2020-03-06T14:16:29.000Z</time>
      </trkpt>
      <trkpt lat="43.50774" lon="6.42348">
        <ele>227.1</ele>
        <time>2020-03-06T14:16:38.000Z</time>
      </trkpt>
      <trkpt lat="43.50782" lon="6.42354">
        <ele>228.3</ele>
        <time>2020-03-06T14:16:46.000Z</time>
      </trkpt>
      <trkpt lat="43.50791" lon="6.4235">
        <ele>229.7</ele>
        <time>2020-03-06T14:16:56.000Z</time>
      </trkpt>
      <trkpt lat="43.50799" lon="6.42344">
        <ele>231.3</ele>
        <time>2020-03-06T14:17:07.000Z</time>
      </trkpt>
      <trkpt lat="43.50807" lon="6.42338">
        <ele>232.2</ele>
        <time>2020-03-06T14:17:16.000Z</time>
      </trkpt>
      <trkpt lat="43.50815" lon="6.42332">
        <ele>233.3</ele>
        <time>2020-03-06T14:17:25.000Z</time>
      </trkpt>
      <trkpt lat="43.50823" lon="6.42326">
        <ele>233.6</ele>
        <time>2020-03-06T14:17:34.000Z</time>
      </trkpt>
      <trkpt lat="43.50831" lon="6.42318">
        <ele>234.1</ele>
        <time>2020-03-06T14:17:43.000Z</time>
      </trkpt>
      <trkpt lat="43.5084" lon="6.42313">
        <ele>234.4</ele>
        <time>2020-03-06T14:17:51.000Z</time>
      </trkpt>
      <trkpt lat="43.50848" lon="6.42308">
        <ele>235.2</ele>
        <time>2020-03-06T14:18:00.000Z</time>
      </trkpt>
      <trkpt lat="43.50857" lon="6.42304">
        <ele>235.1</ele>
        <time>2020-03-06T14:18:10.000Z</time>
      </trkpt>
      <trkpt lat="43.50867" lon="6.42301">
        <ele>236.1</ele>
        <time>2020-03-06T14:18:20.000Z</time>
      </trkpt>
      <trkpt lat="43.50876" lon="6.42299">
        <ele>237.1</ele>
        <time>2020-03-06T14:18:29.000Z</time>
      </trkpt>
      <trkpt lat="43.50885" lon="6.42298">
        <ele>237.9</ele>
        <time>2020-03-06T14:18:37.000Z</time>
      </trkpt>
      <trkpt lat="43.50895" lon="6.423">
        <ele>237.5</ele>
        <time>2020-03-06T14:18:58.000Z</time>
      </trkpt>
      <trkpt lat="43.50904" lon="6.42301">
        <ele>236.6</ele>
        <time>2020-03-06T14:19:08.000Z</time>
      </trkpt>
      <trkpt lat="43.50914" lon="6.42301">
        <ele>236.2</ele>
        <time>2020-03-06T14:19:17.000Z</time>
      </trkpt>
      <trkpt lat="43.50923" lon="6.423">
        <ele>236.1</ele>
        <time>2020-03-06T14:19:27.000Z</time>
      </trkpt>
      <trkpt lat="43.50931" lon="6.42308">
        <ele>235.6</ele>
        <time>2020-03-06T14:19:38.000Z</time>
      </trkpt>
      <trkpt lat="43.50939" lon="6.42315">
        <ele>235</ele>
        <time>2020-03-06T14:19:49.000Z</time>
      </trkpt>
      <trkpt lat="43.50948" lon="6.42316">
        <ele>233</ele>
        <time>2020-03-06T14:20:47.000Z</time>
      </trkpt>
      <trkpt lat="43.5095" lon="6.4233">
        <ele>232.5</ele>
        <time>2020-03-06T14:22:49.000Z</time>
      </trkpt>
      <trkpt lat="43.50951" lon="6.42342">
        <ele>231.1</ele>
        <time>2020-03-06T14:22:57.000Z</time>
      </trkpt>
      <trkpt lat="43.50954" lon="6.42356">
        <ele>229.6</ele>
        <time>2020-03-06T14:23:06.000Z</time>
      </trkpt>
      <trkpt lat="43.50957" lon="6.42368">
        <ele>228.5</ele>
        <time>2020-03-06T14:23:14.000Z</time>
      </trkpt>
      <trkpt lat="43.50959" lon="6.42381">
        <ele>227.4</ele>
        <time>2020-03-06T14:23:22.000Z</time>
      </trkpt>
      <trkpt lat="43.50962" lon="6.42394">
        <ele>225.7</ele>
        <time>2020-03-06T14:23:31.000Z</time>
      </trkpt>
      <trkpt lat="43.50966" lon="6.42407">
        <ele>224.6</ele>
        <time>2020-03-06T14:23:39.000Z</time>
      </trkpt>
      <trkpt lat="43.5097" lon="6.42419">
        <ele>224.2</ele>
        <time>2020-03-06T14:23:47.000Z</time>
      </trkpt>
      <trkpt lat="43.50973" lon="6.42431">
        <ele>224.6</ele>
        <time>2020-03-06T14:23:56.000Z</time>
      </trkpt>
      <trkpt lat="43.50976" lon="6.42444">
        <ele>224.7</ele>
        <time>2020-03-06T14:24:04.000Z</time>
      </trkpt>
      <trkpt lat="43.5098" lon="6.42456">
        <ele>224.2</ele>
        <time>2020-03-06T14:24:12.000Z</time>
      </trkpt>
      <trkpt lat="43.50982" lon="6.42469">
        <ele>223.8</ele>
        <time>2020-03-06T14:24:19.000Z</time>
      </trkpt>
      <trkpt lat="43.50985" lon="6.42482">
        <ele>223.5</ele>
        <time>2020-03-06T14:24:27.000Z</time>
      </trkpt>
      <trkpt lat="43.50991" lon="6.42494">
        <ele>223.8</ele>
        <time>2020-03-06T14:24:35.000Z</time>
      </trkpt>
      <trkpt lat="43.50999" lon="6.42502">
        <ele>224.1</ele>
        <time>2020-03-06T14:24:42.000Z</time>
      </trkpt>
      <trkpt lat="43.51008" lon="6.42506">
        <ele>224.4</ele>
        <time>2020-03-06T14:24:48.000Z</time>
      </trkpt>
      <trkpt lat="43.51016" lon="6.42512">
        <ele>225.6</ele>
        <time>2020-03-06T14:24:54.000Z</time>
      </trkpt>
      <trkpt lat="43.51022" lon="6.42522">
        <ele>226.4</ele>
        <time>2020-03-06T14:25:03.000Z</time>
      </trkpt>
      <trkpt lat="43.51028" lon="6.42531">
        <ele>227.1</ele>
        <time>2020-03-06T14:25:11.000Z</time>
      </trkpt>
      <trkpt lat="43.51037" lon="6.42537">
        <ele>226.7</ele>
        <time>2020-03-06T14:25:20.000Z</time>
      </trkpt>
      <trkpt lat="43.51041" lon="6.42548">
        <ele>226.7</ele>
        <time>2020-03-06T14:26:46.000Z</time>
      </trkpt>
      <trkpt lat="43.51043" lon="6.42561">
        <ele>226.8</ele>
        <time>2020-03-06T14:27:07.000Z</time>
      </trkpt>
      <trkpt lat="43.5105" lon="6.4257">
        <ele>227</ele>
        <time>2020-03-06T14:27:15.000Z</time>
      </trkpt>
      <trkpt lat="43.51059" lon="6.42576">
        <ele>227.4</ele>
        <time>2020-03-06T14:27:24.000Z</time>
      </trkpt>
      <trkpt lat="43.51067" lon="6.42583">
        <ele>227.2</ele>
        <time>2020-03-06T14:27:32.000Z</time>
      </trkpt>
      <trkpt lat="43.51074" lon="6.4259">
        <ele>227.8</ele>
        <time>2020-03-06T14:27:39.000Z</time>
      </trkpt>
      <trkpt lat="43.51081" lon="6.42598">
        <ele>227.6</ele>
        <time>2020-03-06T14:27:47.000Z</time>
      </trkpt>
      <trkpt lat="43.51088" lon="6.42607">
        <ele>227.4</ele>
        <time>2020-03-06T14:27:55.000Z</time>
      </trkpt>
      <trkpt lat="43.51096" lon="6.42616">
        <ele>227.2</ele>
        <time>2020-03-06T14:28:03.000Z</time>
      </trkpt>
      <trkpt lat="43.51103" lon="6.42624">
        <ele>226.8</ele>
        <time>2020-03-06T14:28:10.000Z</time>
      </trkpt>
      <trkpt lat="43.51111" lon="6.42631">
        <ele>226.3</ele>
        <time>2020-03-06T14:28:18.000Z</time>
      </trkpt>
      <trkpt lat="43.51119" lon="6.42639">
        <ele>225.8</ele>
        <time>2020-03-06T14:28:27.000Z</time>
      </trkpt>
      <trkpt lat="43.51126" lon="6.42647">
        <ele>226.2</ele>
        <time>2020-03-06T14:28:34.000Z</time>
      </trkpt>
      <trkpt lat="43.51135" lon="6.42647">
        <ele>224.6</ele>
        <time>2020-03-06T14:28:46.000Z</time>
      </trkpt>
      <trkpt lat="43.51144" lon="6.42648">
        <ele>222.7</ele>
        <time>2020-03-06T14:29:07.000Z</time>
      </trkpt>
      <trkpt lat="43.51152" lon="6.42642">
        <ele>221.8</ele>
        <time>2020-03-06T14:30:34.000Z</time>
      </trkpt>
      <trkpt lat="43.51158" lon="6.42631">
        <ele>221.6</ele>
        <time>2020-03-06T14:31:45.000Z</time>
      </trkpt>
      <trkpt lat="43.51164" lon="6.4262">
        <ele>221.1</ele>
        <time>2020-03-06T14:31:54.000Z</time>
      </trkpt>
      <trkpt lat="43.51169" lon="6.4261">
        <ele>220.5</ele>
        <time>2020-03-06T14:32:02.000Z</time>
      </trkpt>
      <trkpt lat="43.51174" lon="6.42599">
        <ele>220.3</ele>
        <time>2020-03-06T14:32:11.000Z</time>
      </trkpt>
      <trkpt lat="43.51179" lon="6.42588">
        <ele>220.5</ele>
        <time>2020-03-06T14:32:20.000Z</time>
      </trkpt>
      <trkpt lat="43.51184" lon="6.42578">
        <ele>220.6</ele>
        <time>2020-03-06T14:32:29.000Z</time>
      </trkpt>
      <trkpt lat="43.51189" lon="6.42566">
        <ele>220.7</ele>
        <time>2020-03-06T14:32:38.000Z</time>
      </trkpt>
      <trkpt lat="43.51193" lon="6.42555">
        <ele>221.4</ele>
        <time>2020-03-06T14:32:52.000Z</time>
      </trkpt>
      <trkpt lat="43.51199" lon="6.42545">
        <ele>221.1</ele>
        <time>2020-03-06T14:33:00.000Z</time>
      </trkpt>
      <trkpt lat="43.51204" lon="6.42534">
        <ele>220.9</ele>
        <time>2020-03-06T14:33:14.000Z</time>
      </trkpt>
      <trkpt lat="43.51209" lon="6.42523">
        <ele>220.8</ele>
        <time>2020-03-06T14:33:22.000Z</time>
      </trkpt>
      <trkpt lat="43.51215" lon="6.42512">
        <ele>220.8</ele>
        <time>2020-03-06T14:33:31.000Z</time>
      </trkpt>
      <trkpt lat="43.51224" lon="6.42506">
        <ele>221</ele>
        <time>2020-03-06T14:33:40.000Z</time>
      </trkpt>
      <trkpt lat="43.51234" lon="6.42506">
        <ele>220.8</ele>
        <time>2020-03-06T14:33:50.000Z</time>
      </trkpt>
      <trkpt lat="43.51244" lon="6.42505">
        <ele>220.6</ele>
        <time>2020-03-06T14:33:59.000Z</time>
      </trkpt>
      <trkpt lat="43.51253" lon="6.42506">
        <ele>221.1</ele>
        <time>2020-03-06T14:34:08.000Z</time>
      </trkpt>
      <trkpt lat="43.51263" lon="6.42505">
        <ele>221.2</ele>
        <time>2020-03-06T14:34:17.000Z</time>
      </trkpt>
      <trkpt lat="43.51273" lon="6.42505">
        <ele>221.2</ele>
        <time>2020-03-06T14:34:25.000Z</time>
      </trkpt>
      <trkpt lat="43.51282" lon="6.42509">
        <ele>221.5</ele>
        <time>2020-03-06T14:34:34.000Z</time>
      </trkpt>
      <trkpt lat="43.51291" lon="6.42509">
        <ele>222.6</ele>
        <time>2020-03-06T14:34:44.000Z</time>
      </trkpt>
      <trkpt lat="43.51299" lon="6.42513">
        <ele>223.7</ele>
        <time>2020-03-06T14:34:55.000Z</time>
      </trkpt>
      <trkpt lat="43.51308" lon="6.4252">
        <ele>224.6</ele>
        <time>2020-03-06T14:35:04.000Z</time>
      </trkpt>
      <trkpt lat="43.51317" lon="6.42524">
        <ele>225.4</ele>
        <time>2020-03-06T14:35:13.000Z</time>
      </trkpt>
      <trkpt lat="43.51326" lon="6.42527">
        <ele>225.9</ele>
        <time>2020-03-06T14:35:22.000Z</time>
      </trkpt>
      <trkpt lat="43.51336" lon="6.42528">
        <ele>225.5</ele>
        <time>2020-03-06T14:35:31.000Z</time>
      </trkpt>
      <trkpt lat="43.51345" lon="6.42529">
        <ele>225</ele>
        <time>2020-03-06T14:35:40.000Z</time>
      </trkpt>
      <trkpt lat="43.51355" lon="6.42526">
        <ele>225.2</ele>
        <time>2020-03-06T14:35:50.000Z</time>
      </trkpt>
      <trkpt lat="43.51365" lon="6.42525">
        <ele>225.7</ele>
        <time>2020-03-06T14:35:59.000Z</time>
      </trkpt>
      <trkpt lat="43.51374" lon="6.42528">
        <ele>225.6</ele>
        <time>2020-03-06T14:36:08.000Z</time>
      </trkpt>
      <trkpt lat="43.51384" lon="6.42527">
        <ele>225</ele>
        <time>2020-03-06T14:36:16.000Z</time>
      </trkpt>
      <trkpt lat="43.51393" lon="6.4253">
        <ele>224.3</ele>
        <time>2020-03-06T14:36:26.000Z</time>
      </trkpt>
      <trkpt lat="43.51403" lon="6.42534">
        <ele>223.5</ele>
        <time>2020-03-06T14:36:35.000Z</time>
      </trkpt>
      <trkpt lat="43.51412" lon="6.42533">
        <ele>223.3</ele>
        <time>2020-03-06T14:36:45.000Z</time>
      </trkpt>
      <trkpt lat="43.51422" lon="6.42533">
        <ele>222.9</ele>
        <time>2020-03-06T14:36:54.000Z</time>
      </trkpt>
      <trkpt lat="43.51432" lon="6.42535">
        <ele>222.7</ele>
        <time>2020-03-06T14:37:05.000Z</time>
      </trkpt>
      <trkpt lat="43.5144" lon="6.42541">
        <ele>222.3</ele>
        <time>2020-03-06T14:37:13.000Z</time>
      </trkpt>
      <trkpt lat="43.51449" lon="6.42547">
        <ele>221.6</ele>
        <time>2020-03-06T14:37:22.000Z</time>
      </trkpt>
      <trkpt lat="43.51457" lon="6.42552">
        <ele>221.6</ele>
        <time>2020-03-06T14:37:37.000Z</time>
      </trkpt>
      <trkpt lat="43.51466" lon="6.42558">
        <ele>222.4</ele>
        <time>2020-03-06T14:37:46.000Z</time>
      </trkpt>
      <trkpt lat="43.51474" lon="6.42565">
        <ele>222</ele>
        <time>2020-03-06T14:37:55.000Z</time>
      </trkpt>
      <trkpt lat="43.51482" lon="6.42572">
        <ele>221.9</ele>
        <time>2020-03-06T14:38:04.000Z</time>
      </trkpt>
      <trkpt lat="43.51491" lon="6.42578">
        <ele>221.2</ele>
        <time>2020-03-06T14:38:13.000Z</time>
      </trkpt>
      <trkpt lat="43.51499" lon="6.42585">
        <ele>221.6</ele>
        <time>2020-03-06T14:38:21.000Z</time>
      </trkpt>
      <trkpt lat="43.51507" lon="6.4259">
        <ele>222</ele>
        <time>2020-03-06T14:38:30.000Z</time>
      </trkpt>
      <trkpt lat="43.51514" lon="6.42599">
        <ele>223.5</ele>
        <time>2020-03-06T14:38:44.000Z</time>
      </trkpt>
      <trkpt lat="43.51508" lon="6.4261">
        <ele>223.9</ele>
        <time>2020-03-06T14:38:55.000Z</time>
      </trkpt>
      <trkpt lat="43.51507" lon="6.42622">
        <ele>224.1</ele>
        <time>2020-03-06T14:40:54.000Z</time>
      </trkpt>
      <trkpt lat="43.51515" lon="6.42625">
        <ele>223.2</ele>
        <time>2020-03-06T14:41:37.000Z</time>
      </trkpt>
      <trkpt lat="43.51524" lon="6.42632">
        <ele>223.4</ele>
        <time>2020-03-06T14:41:47.000Z</time>
      </trkpt>
      <trkpt lat="43.5153" lon="6.42641">
        <ele>223.5</ele>
        <time>2020-03-06T14:41:55.000Z</time>
      </trkpt>
      <trkpt lat="43.51531" lon="6.42654">
        <ele>224.6</ele>
        <time>2020-03-06T14:42:05.000Z</time>
      </trkpt>
      <trkpt lat="43.51525" lon="6.42665">
        <ele>224.7</ele>
        <time>2020-03-06T14:42:14.000Z</time>
      </trkpt>
      <trkpt lat="43.51519" lon="6.42676">
        <ele>224.8</ele>
        <time>2020-03-06T14:42:23.000Z</time>
      </trkpt>
      <trkpt lat="43.51515" lon="6.42688">
        <ele>225.7</ele>
        <time>2020-03-06T14:42:33.000Z</time>
      </trkpt>
      <trkpt lat="43.5152" lon="6.42699">
        <ele>226.4</ele>
        <time>2020-03-06T14:42:47.000Z</time>
      </trkpt>
      <trkpt lat="43.51528" lon="6.42705">
        <ele>226.8</ele>
        <time>2020-03-06T14:42:57.000Z</time>
      </trkpt>
      <trkpt lat="43.51538" lon="6.42702">
        <ele>227.3</ele>
        <time>2020-03-06T14:43:06.000Z</time>
      </trkpt>
      <trkpt lat="43.51546" lon="6.42696">
        <ele>227.4</ele>
        <time>2020-03-06T14:43:15.000Z</time>
      </trkpt>
      <trkpt lat="43.51556" lon="6.42695">
        <ele>229.3</ele>
        <time>2020-03-06T14:43:24.000Z</time>
      </trkpt>
      <trkpt lat="43.51565" lon="6.4269">
        <ele>229.7</ele>
        <time>2020-03-06T14:43:33.000Z</time>
      </trkpt>
      <trkpt lat="43.51572" lon="6.42682">
        <ele>229.7</ele>
        <time>2020-03-06T14:43:41.000Z</time>
      </trkpt>
      <trkpt lat="43.51579" lon="6.42672">
        <ele>229.2</ele>
        <time>2020-03-06T14:43:50.000Z</time>
      </trkpt>
      <trkpt lat="43.51587" lon="6.42665">
        <ele>228.4</ele>
        <time>2020-03-06T14:43:58.000Z</time>
      </trkpt>
      <trkpt lat="43.51596" lon="6.42659">
        <ele>229.1</ele>
        <time>2020-03-06T14:44:07.000Z</time>
      </trkpt>
      <trkpt lat="43.51605" lon="6.42654">
        <ele>229.3</ele>
        <time>2020-03-06T14:44:16.000Z</time>
      </trkpt>
      <trkpt lat="43.51614" lon="6.42652">
        <ele>229.1</ele>
        <time>2020-03-06T14:45:18.000Z</time>
      </trkpt>
      <trkpt lat="43.51623" lon="6.42654">
        <ele>230.2</ele>
        <time>2020-03-06T14:45:27.000Z</time>
      </trkpt>
      <trkpt lat="43.51633" lon="6.42652">
        <ele>231</ele>
        <time>2020-03-06T14:45:36.000Z</time>
      </trkpt>
      <trkpt lat="43.51642" lon="6.42656">
        <ele>231.8</ele>
        <time>2020-03-06T14:45:48.000Z</time>
      </trkpt>
      <trkpt lat="43.51651" lon="6.42658">
        <ele>232.2</ele>
        <time>2020-03-06T14:45:58.000Z</time>
      </trkpt>
      <trkpt lat="43.51658" lon="6.42666">
        <ele>232.9</ele>
        <time>2020-03-06T14:46:08.000Z</time>
      </trkpt>
      <trkpt lat="43.51668" lon="6.42667">
        <ele>234.6</ele>
        <time>2020-03-06T14:46:21.000Z</time>
      </trkpt>
      <trkpt lat="43.51677" lon="6.4267">
        <ele>235.5</ele>
        <time>2020-03-06T14:46:31.000Z</time>
      </trkpt>
      <trkpt lat="43.51684" lon="6.42678">
        <ele>236.3</ele>
        <time>2020-03-06T14:46:44.000Z</time>
      </trkpt>
      <trkpt lat="43.51693" lon="6.4268">
        <ele>237.4</ele>
        <time>2020-03-06T14:46:53.000Z</time>
      </trkpt>
      <trkpt lat="43.51702" lon="6.4268">
        <ele>238.2</ele>
        <time>2020-03-06T14:47:02.000Z</time>
      </trkpt>
      <trkpt lat="43.51712" lon="6.42681">
        <ele>238.8</ele>
        <time>2020-03-06T14:47:12.000Z</time>
      </trkpt>
      <trkpt lat="43.51721" lon="6.42681">
        <ele>238.6</ele>
        <time>2020-03-06T14:47:20.000Z</time>
      </trkpt>
      <trkpt lat="43.51731" lon="6.42679">
        <ele>238.7</ele>
        <time>2020-03-06T14:47:30.000Z</time>
      </trkpt>
      <trkpt lat="43.5174" lon="6.42679">
        <ele>238.9</ele>
        <time>2020-03-06T14:47:39.000Z</time>
      </trkpt>
      <trkpt lat="43.51749" lon="6.42682">
        <ele>238.6</ele>
        <time>2020-03-06T14:47:49.000Z</time>
      </trkpt>
      <trkpt lat="43.51758" lon="6.42685">
        <ele>238.5</ele>
        <time>2020-03-06T14:48:24.000Z</time>
      </trkpt>
      <trkpt lat="43.51767" lon="6.4268">
        <ele>237.5</ele>
        <time>2020-03-06T14:49:50.000Z</time>
      </trkpt>
      <trkpt lat="43.51776" lon="6.42677">
        <ele>237.7</ele>
        <time>2020-03-06T14:51:56.000Z</time>
      </trkpt>
      <trkpt lat="43.51785" lon="6.42673">
        <ele>237.5</ele>
        <time>2020-03-06T14:52:05.000Z</time>
      </trkpt>
      <trkpt lat="43.5179" lon="6.42662">
        <ele>237.2</ele>
        <time>2020-03-06T14:52:13.000Z</time>
      </trkpt>
      <trkpt lat="43.51793" lon="6.4265">
        <ele>237.9</ele>
        <time>2020-03-06T14:52:21.000Z</time>
      </trkpt>
      <trkpt lat="43.51792" lon="6.42636">
        <ele>237.7</ele>
        <time>2020-03-06T14:52:28.000Z</time>
      </trkpt>
      <trkpt lat="43.51791" lon="6.42623">
        <ele>237.6</ele>
        <time>2020-03-06T14:52:36.000Z</time>
      </trkpt>
      <trkpt lat="43.51792" lon="6.42609">
        <ele>237.7</ele>
        <time>2020-03-06T14:52:45.000Z</time>
      </trkpt>
      <trkpt lat="43.51788" lon="6.42597">
        <ele>238</ele>
        <time>2020-03-06T14:52:51.000Z</time>
      </trkpt>
      <trkpt lat="43.51786" lon="6.42583">
        <ele>238.8</ele>
        <time>2020-03-06T14:53:00.000Z</time>
      </trkpt>
      <trkpt lat="43.51788" lon="6.42569">
        <ele>239.7</ele>
        <time>2020-03-06T14:53:09.000Z</time>
      </trkpt>
      <trkpt lat="43.5179" lon="6.42556">
        <ele>240</ele>
        <time>2020-03-06T14:53:17.000Z</time>
      </trkpt>
      <trkpt lat="43.51791" lon="6.42542">
        <ele>240.8</ele>
        <time>2020-03-06T14:53:25.000Z</time>
      </trkpt>
      <trkpt lat="43.51793" lon="6.4253">
        <ele>241.1</ele>
        <time>2020-03-06T14:53:33.000Z</time>
      </trkpt>
      <trkpt lat="43.51798" lon="6.42519">
        <ele>242</ele>
        <time>2020-03-06T14:53:41.000Z</time>
      </trkpt>
      <trkpt lat="43.51799" lon="6.42507">
        <ele>243.5</ele>
        <time>2020-03-06T14:53:50.000Z</time>
      </trkpt>
      <trkpt lat="43.518" lon="6.42494">
        <ele>244.6</ele>
        <time>2020-03-06T14:53:59.000Z</time>
      </trkpt>
      <trkpt lat="43.51801" lon="6.42481">
        <ele>245.8</ele>
        <time>2020-03-06T14:54:08.000Z</time>
      </trkpt>
      <trkpt lat="43.51805" lon="6.42469">
        <ele>247.1</ele>
        <time>2020-03-06T14:54:18.000Z</time>
      </trkpt>
      <trkpt lat="43.51808" lon="6.42456">
        <ele>248.1</ele>
        <time>2020-03-06T14:54:28.000Z</time>
      </trkpt>
      <trkpt lat="43.51811" lon="6.42444">
        <ele>248.4</ele>
        <time>2020-03-06T14:54:36.000Z</time>
      </trkpt>
      <trkpt lat="43.51817" lon="6.42433">
        <ele>248.9</ele>
        <time>2020-03-06T14:54:44.000Z</time>
      </trkpt>
      <trkpt lat="43.51823" lon="6.42423">
        <ele>248.9</ele>
        <time>2020-03-06T14:54:52.000Z</time>
      </trkpt>
      <trkpt lat="43.51828" lon="6.42412">
        <ele>249</ele>
        <time>2020-03-06T14:55:01.000Z</time>
      </trkpt>
      <trkpt lat="43.51833" lon="6.424">
        <ele>249.2</ele>
        <time>2020-03-06T14:55:09.000Z</time>
      </trkpt>
      <trkpt lat="43.51837" lon="6.42388">
        <ele>249.9</ele>
        <time>2020-03-06T14:55:17.000Z</time>
      </trkpt>
      <trkpt lat="43.51845" lon="6.42381">
        <ele>249.9</ele>
        <time>2020-03-06T14:55:25.000Z</time>
      </trkpt>
      <trkpt lat="43.51853" lon="6.42377">
        <ele>249.4</ele>
        <time>2020-03-06T14:55:33.000Z</time>
      </trkpt>
      <trkpt lat="43.51863" lon="6.42373">
        <ele>249.2</ele>
        <time>2020-03-06T14:55:42.000Z</time>
      </trkpt>
      <trkpt lat="43.51872" lon="6.4237">
        <ele>249.2</ele>
        <time>2020-03-06T14:55:49.000Z</time>
      </trkpt>
      <trkpt lat="43.51882" lon="6.42367">
        <ele>248.8</ele>
        <time>2020-03-06T14:55:57.000Z</time>
      </trkpt>
      <trkpt lat="43.51892" lon="6.42362">
        <ele>249</ele>
        <time>2020-03-06T14:56:05.000Z</time>
      </trkpt>
      <trkpt lat="43.51901" lon="6.42361">
        <ele>248.8</ele>
        <time>2020-03-06T14:56:12.000Z</time>
      </trkpt>
      <trkpt lat="43.5191" lon="6.42361">
        <ele>248.8</ele>
        <time>2020-03-06T14:56:20.000Z</time>
      </trkpt>
      <trkpt lat="43.51918" lon="6.42365">
        <ele>249.2</ele>
        <time>2020-03-06T14:56:28.000Z</time>
      </trkpt>
      <trkpt lat="43.51927" lon="6.4237">
        <ele>249.4</ele>
        <time>2020-03-06T14:56:36.000Z</time>
      </trkpt>
      <trkpt lat="43.51936" lon="6.42374">
        <ele>249.7</ele>
        <time>2020-03-06T14:56:44.000Z</time>
      </trkpt>
      <trkpt lat="43.51945" lon="6.42379">
        <ele>249.7</ele>
        <time>2020-03-06T14:56:52.000Z</time>
      </trkpt>
      <trkpt lat="43.51951" lon="6.42389">
        <ele>249.6</ele>
        <time>2020-03-06T14:57:01.000Z</time>
      </trkpt>
      <trkpt lat="43.5195" lon="6.42402">
        <ele>249.1</ele>
        <time>2020-03-06T14:57:10.000Z</time>
      </trkpt>
      <trkpt lat="43.51948" lon="6.42414">
        <ele>248.2</ele>
        <time>2020-03-06T14:57:19.000Z</time>
      </trkpt>
      <trkpt lat="43.51945" lon="6.42428">
        <ele>247.5</ele>
        <time>2020-03-06T14:57:28.000Z</time>
      </trkpt>
      <trkpt lat="43.5195" lon="6.4244">
        <ele>246.7</ele>
        <time>2020-03-06T14:57:37.000Z</time>
      </trkpt>
      <trkpt lat="43.51959" lon="6.42446">
        <ele>246.2</ele>
        <time>2020-03-06T14:57:46.000Z</time>
      </trkpt>
      <trkpt lat="43.51968" lon="6.42451">
        <ele>245.6</ele>
        <time>2020-03-06T14:57:55.000Z</time>
      </trkpt>
      <trkpt lat="43.51977" lon="6.42456">
        <ele>245.4</ele>
        <time>2020-03-06T14:58:04.000Z</time>
      </trkpt>
      <trkpt lat="43.51986" lon="6.42458">
        <ele>245.6</ele>
        <time>2020-03-06T14:58:12.000Z</time>
      </trkpt>
      <trkpt lat="43.51995" lon="6.42461">
        <ele>245.1</ele>
        <time>2020-03-06T14:58:20.000Z</time>
      </trkpt>
      <trkpt lat="43.52005" lon="6.42465">
        <ele>245</ele>
        <time>2020-03-06T14:58:29.000Z</time>
      </trkpt>
      <trkpt lat="43.52015" lon="6.42467">
        <ele>245</ele>
        <time>2020-03-06T14:58:38.000Z</time>
      </trkpt>
      <trkpt lat="43.52024" lon="6.42464">
        <ele>245.2</ele>
        <time>2020-03-06T14:58:46.000Z</time>
      </trkpt>
      <trkpt lat="43.52033" lon="6.42466">
        <ele>245.3</ele>
        <time>2020-03-06T14:58:53.000Z</time>
      </trkpt>
      <trkpt lat="43.52043" lon="6.42469">
        <ele>245.6</ele>
        <time>2020-03-06T14:59:01.000Z</time>
      </trkpt>
      <trkpt lat="43.52053" lon="6.42473">
        <ele>246.2</ele>
        <time>2020-03-06T14:59:10.000Z</time>
      </trkpt>
      <trkpt lat="43.52062" lon="6.42473">
        <ele>246.7</ele>
        <time>2020-03-06T14:59:18.000Z</time>
      </trkpt>
      <trkpt lat="43.52072" lon="6.4247">
        <ele>246.4</ele>
        <time>2020-03-06T14:59:27.000Z</time>
      </trkpt>
      <trkpt lat="43.52082" lon="6.42467">
        <ele>246.6</ele>
        <time>2020-03-06T14:59:35.000Z</time>
      </trkpt>
      <trkpt lat="43.52091" lon="6.42465">
        <ele>246.8</ele>
        <time>2020-03-06T14:59:43.000Z</time>
      </trkpt>
      <trkpt lat="43.52101" lon="6.42465">
        <ele>246.6</ele>
        <time>2020-03-06T14:59:52.000Z</time>
      </trkpt>
      <trkpt lat="43.52111" lon="6.42466">
        <ele>246</ele>
        <time>2020-03-06T15:00:01.000Z</time>
      </trkpt>
      <trkpt lat="43.52121" lon="6.42467">
        <ele>245.3</ele>
        <time>2020-03-06T15:00:10.000Z</time>
      </trkpt>
      <trkpt lat="43.52131" lon="6.42469">
        <ele>244.8</ele>
        <time>2020-03-06T15:00:19.000Z</time>
      </trkpt>
      <trkpt lat="43.52139" lon="6.42471">
        <ele>244.5</ele>
        <time>2020-03-06T15:00:27.000Z</time>
      </trkpt>
      <trkpt lat="43.52148" lon="6.42478">
        <ele>243.9</ele>
        <time>2020-03-06T15:00:36.000Z</time>
      </trkpt>
      <trkpt lat="43.52155" lon="6.42486">
        <ele>242.4</ele>
        <time>2020-03-06T15:00:45.000Z</time>
      </trkpt>
      <trkpt lat="43.52163" lon="6.42494">
        <ele>241.5</ele>
        <time>2020-03-06T15:00:54.000Z</time>
      </trkpt>
      <trkpt lat="43.52171" lon="6.42501">
        <ele>241.1</ele>
        <time>2020-03-06T15:01:02.000Z</time>
      </trkpt>
      <trkpt lat="43.5218" lon="6.425">
        <ele>240.9</ele>
        <time>2020-03-06T15:01:11.000Z</time>
      </trkpt>
      <trkpt lat="43.52186" lon="6.42498">
        <ele>240.9</ele>
        <time>2020-03-06T15:01:41.000Z</time>
      </trkpt>
    </trkseg>
  </trk>
</gpx>